.
WxDataArchive / Data Records for 2013-07-20
2013-07-19 July 2013 2013-07-21

Data Records for Saturday, 20 July 2013

Time	Temp	Chill	HIndex	Humid	Dewpt	 Wind 	HiWind	WindDir	Rain 	Barom 
-----	----	-----	------	-----	-----	------	------	-------	-----	----- 
00:00	82.6	82.6	86.6	66	70.1	1	6	248	0.00	29.787 
00:05	82.6	82.6	86.6	66	70.1	1	4	248	0.00	29.787 
00:10	82.4	82.4	86.5	67	70.3	1	6	270	0.00	29.787 
00:15	82.4	82.4	86.5	67	70.3	1	3	248	0.00	29.790 
00:20	82.4	82.4	86.5	67	70.3	1	4	248	0.00	29.790 
00:25	82.2	82.2	86.1	67	70.1	1	3	292	0.00	29.790 
00:30	82.2	82.2	86.1	67	70.1	1	5	270	0.00	29.790 
00:35	82.2	82.2	86.4	68	70.6	1	4	270	0.00	29.790 
00:40	82.2	82.2	86.4	68	70.6	1	3	248	0.00	29.790 
00:45	82.0	82.0	86.0	68	70.4	0	3	248	0.00	29.781 
00:50	82.0	82.0	86.2	69	70.8	0	2	248	0.00	29.781 
00:55	81.8	81.8	85.9	69	70.6	1	3	270	0.00	29.781 
01:00	81.8	81.8	85.9	69	70.6	0	2	270	0.00	29.778 
01:05	81.8	81.8	85.9	69	70.6	0	3	270	0.00	29.778 
01:10	81.6	81.6	85.5	69	70.4	0	3	270	0.00	29.778 
01:15	81.6	81.6	85.5	69	70.4	1	4	248	0.00	29.772 
01:20	81.4	81.4	85.3	70	70.7	0	2	248	0.00	29.772 
01:25	81.4	81.4	85.3	70	70.7	0	4	270	0.00	29.772 
01:30	81.4	81.4	85.3	70	70.7	1	3	270	0.00	29.773 
01:35	81.2	81.2	85.0	70	70.5	0	2	270	0.00	29.773 
01:40	81.2	81.2	85.0	70	70.5	1	4	270	0.00	29.773 
01:45	81.2	81.2	85.0	70	70.5	1	4	248	0.00	29.770 
01:50	81.2	81.2	85.2	71	70.9	1	4	248	0.00	29.770 
01:55	81.1	81.1	85.0	71	70.8	0	2	248	0.00	29.770 
02:00	81.1	81.1	85.0	71	70.8	1	4	270	0.00	29.756 
02:05	80.9	80.9	84.6	71	70.6	1	5	270	0.00	29.756 
02:10	80.9	80.9	84.8	72	71.0	1	5	248	0.00	29.756 
02:15	80.9	80.9	84.8	72	71.0	1	2	270	0.00	29.755 
02:20	80.9	80.9	84.8	72	71.0	0	4	270	0.00	29.755 
02:25	80.7	80.7	84.4	72	70.8	1	5	270	0.00	29.755 
02:30	80.7	80.7	84.6	73	71.2	1	4	248	0.00	29.768 
02:35	80.7	80.7	84.6	73	71.2	1	4	248	0.00	29.768 
02:40	80.7	80.7	84.6	73	71.2	0	2	248	0.00	29.768 
02:45	80.7	80.7	84.6	73	71.2	1	4	248	0.00	29.761 
02:50	80.7	80.7	84.6	73	71.2	1	3	248	0.00	29.761 
02:55	80.5	80.5	84.2	73	71.0	1	3	248	0.00	29.761 
03:00	80.5	80.5	84.2	73	71.0	1	10	248	0.00	29.753 
03:05	80.5	80.5	84.2	73	71.0	1	6	248	0.00	29.753 
03:10	80.3	80.3	83.9	73	70.8	1	5	248	0.00	29.753 
03:15	80.3	80.3	83.9	73	70.8	1	5	270	0.00	29.754 
03:20	80.3	80.3	83.9	73	70.8	1	5	248	0.00	29.754 
03:25	80.3	80.3	83.9	73	70.8	1	5	270	0.00	29.754 
03:30	80.3	80.3	83.9	73	70.8	1	6	270	0.00	29.749 
03:35	80.3	80.3	84.0	74	71.2	1	4	292	0.00	29.749 
03:40	79.8	79.8	83.3	76	71.5	1	5	270	0.00	29.749 
03:45	79.6	79.6	83.0	76	71.3	1	5	270	0.00	29.742 
03:50	79.4	79.4	82.6	76	71.2	1	3	270	0.00	29.742 
03:55	79.6	79.6	83.0	76	71.3	1	4	270	0.00	29.742 
04:00	79.6	79.6	83.0	76	71.3	1	4	270	0.00	29.740 
04:05	79.4	79.4	82.6	76	71.2	1	3	270	0.00	29.740 
04:10	79.2	79.2	82.3	77	71.3	0	2	270	0.00	29.740 
04:15	79.2	79.2	82.3	77	71.3	1	3	270	0.00	29.736 
04:20	79.0	79.0	82.0	77	71.2	0	2	225	0.00	29.736 
04:25	78.8	78.8	81.6	77	71.0	1	5	270	0.00	29.736 
04:30	78.8	78.8	81.6	77	71.0	0	2	248	0.00	29.737 
04:35	78.8	78.8	81.7	78	71.3	1	3	270	0.00	29.737 
04:40	78.8	78.8	81.7	78	71.3	0	1	270	0.00	29.737 
04:45	78.8	78.8	81.7	78	71.3	0	1	270	0.00	29.741 
04:50	78.6	78.6	81.3	78	71.1	0	5	270	0.00	29.741 
04:55	78.6	78.6	81.3	78	71.1	0	3	248	0.00	29.741 
05:00	78.8	78.8	81.7	78	71.3	2	5	248	0.00	29.742 
05:05	78.8	78.8	81.7	78	71.3	3	6	292	0.00	29.742 
05:10	77.9	77.9	80.1	80	71.2	3	7	315	0.01	29.742 
05:15	76.0	76.0	76.8	82	70.1	2	6	338	0.00	29.757 
05:20	75.3	75.3	75.6	83	69.8	2	4	315	0.00	29.757 
05:25	74.7	74.7	74.7	85	69.9	1	3	270	0.00	29.757 
05:30	74.6	74.6	74.6	86	70.1	0	1	270	0.00	29.761 
05:35	74.4	74.4	74.4	87	70.3	1	3	270	0.08	29.761 
05:40	74.0	74.0	74.0	88	70.2	0	2	270	0.09	29.761 
05:45	73.9	73.9	73.9	89	70.4	0	2	270	0.01	29.753 
05:50	73.7	73.7	73.7	90	70.6	0	2	270	0.00	29.753 
05:55	73.7	73.7	73.7	91	70.9	0	2	270	0.00	29.753 
06:00	73.3	73.3	73.3	91	70.5	0	2	270	0.00	29.763 
06:05	73.2	73.2	73.2	92	70.7	0	2	270	0.01	29.763 
06:10	73.2	73.2	73.2	92	70.7	1	3	270	0.00	29.763 
06:15	73.2	73.2	73.2	92	70.7	0	2	270	0.00	29.764 
06:20	73.2	73.2	73.2	93	71.0	0	1	270	0.00	29.764 
06:25	73.2	73.2	73.2	93	71.0	0	1	270	0.00	29.764 
06:30	73.3	73.3	73.3	93	71.1	0	1	270	0.00	29.778 
06:35	73.5	73.5	73.5	93	71.3	0	2	270	0.00	29.778 
06:40	73.5	73.5	73.5	93	71.3	0	1	270	0.00	29.778 
06:45	73.7	73.7	73.7	94	71.9	0	2	315	0.00	29.777 
06:50	73.7	73.7	73.7	94	71.9	0	1	315	0.00	29.777 
06:55	73.7	73.7	73.7	94	71.9	0	1	315	0.00	29.777 
07:00	73.9	73.9	73.9	94	72.1	0	0	---	0.00	29.776 
07:05	73.9	73.9	73.9	94	72.1	0	0	---	0.00	29.776 
07:10	73.9	73.9	73.9	94	72.1	0	0	---	0.00	29.776 
07:15	73.9	73.9	73.9	94	72.1	0	0	---	0.00	29.777 
07:20	73.9	73.9	73.9	94	72.1	0	0	---	0.00	29.777 
07:25	73.9	73.9	73.9	94	72.1	0	0	---	0.00	29.777 
07:30	74.0	74.0	74.0	94	72.2	0	1	315	0.00	29.778 
07:35	74.2	74.2	74.2	94	72.4	0	1	315	0.00	29.778 
07:40	74.4	74.4	74.4	94	72.6	0	1	315	0.00	29.778 
07:45	74.4	74.4	74.4	94	72.6	0	0	---	0.00	29.777 
07:50	74.4	74.4	74.4	94	72.6	0	1	315	0.00	29.777 
07:55	74.6	74.6	74.6	94	72.8	0	1	315	0.00	29.777 
08:00	74.7	74.7	74.7	95	73.2	0	3	315	0.00	29.792 
08:05	74.9	74.9	74.9	95	73.4	0	2	315	0.00	29.792 
08:10	75.1	75.1	73.4	95	73.6	1	3	315	0.00	29.792 
08:15	75.1	75.1	73.4	95	73.6	1	4	270	0.00	29.790 
08:20	74.9	74.9	74.9	94	73.0	1	4	292	0.00	29.790 
08:25	74.9	74.9	74.9	94	73.0	0	2	292	0.00	29.790 
08:30	74.7	74.7	74.7	94	72.9	1	2	292	0.00	29.778 
08:35	74.6	74.6	74.6	94	72.8	0	2	292	0.00	29.778 
08:40	74.6	74.6	74.6	94	72.8	0	2	292	0.00	29.778 
08:45	74.6	74.6	74.6	94	72.8	0	1	292	0.00	29.799 
08:50	74.6	74.6	74.6	94	72.8	0	1	292	0.00	29.799 
08:55	74.6	74.6	74.6	93	72.4	0	0	---	0.00	29.799 
09:00	74.6	74.6	74.6	93	72.4	0	0	---	0.00	29.798 
09:05	74.6	74.6	74.6	93	72.4	0	1	292	0.00	29.798 
09:10	74.7	74.7	74.7	93	72.5	0	0	---	0.00	29.798 
09:15	74.9	74.9	74.9	93	72.7	0	1	292	0.00	29.809 
09:20	74.9	74.9	74.9	93	72.7	0	0	---	0.00	29.809 
09:25	75.1	75.1	73.8	93	72.9	0	1	292	0.00	29.809 
09:30	75.4	75.4	74.2	94	73.5	0	1	292	0.00	29.816 
09:35	75.8	75.8	75.3	93	73.6	0	2	292	0.00	29.816 
09:40	76.0	76.0	75.7	93	73.8	0	1	292	0.00	29.816 
09:45	76.0	76.0	75.8	92	73.5	0	2	292	0.00	29.821 
09:50	76.1	76.1	76.0	92	73.6	0	2	292	0.00	29.821 
09:55	76.3	76.3	76.7	90	73.1	0	2	292	0.00	29.821 
10:00	76.3	76.3	76.8	88	72.5	1	3	270	0.00	29.813 
10:05	76.7	76.7	77.8	86	72.2	1	3	270	0.00	29.813 
10:10	77.0	77.0	78.4	84	71.8	0	2	270	0.01	29.813 
10:15	77.2	77.2	78.8	83	71.6	1	2	270	0.00	29.821 
10:20	77.4	77.4	79.2	81	71.1	1	2	270	0.00	29.821 
10:25	77.9	77.9	80.1	80	71.2	1	2	270	0.00	29.821 
10:30	78.1	78.1	80.5	79	71.0	0	3	270	0.00	29.820 
10:35	78.1	78.1	80.5	79	71.0	0	1	270	0.00	29.820 
10:40	78.3	78.3	80.8	79	71.2	0	2	270	0.00	29.820 
10:45	78.5	78.5	81.1	78	71.1	0	1	270	0.00	29.825 
10:50	78.5	78.5	81.2	79	71.4	0	1	270	0.00	29.825 
10:55	78.3	78.3	80.8	79	71.2	0	1	270	0.00	29.825 
11:00	78.3	78.3	80.8	79	71.2	0	1	270	0.00	29.829 
11:05	78.1	78.1	80.5	80	71.4	0	1	270	0.00	29.829 
11:10	78.1	78.1	80.5	81	71.8	0	1	270	0.00	29.829 
11:15	78.3	78.3	80.9	82	72.3	0	1	270	0.00	29.826 
11:20	78.1	78.1	80.6	83	72.5	0	1	270	0.00	29.826 
11:25	78.1	78.1	80.6	83	72.5	0	2	270	0.00	29.826 
11:30	78.1	78.1	80.6	83	72.5	0	1	270	0.00	29.825 
11:35	78.3	78.3	81.0	83	72.7	0	1	270	0.00	29.825 
11:40	78.5	78.5	81.3	82	72.5	0	2	270	0.00	29.825 
11:45	79.0	79.0	82.3	81	72.7	1	3	270	0.00	29.825 
11:50	79.4	79.4	83.1	81	73.0	1	3	270	0.00	29.825 
11:55	79.8	79.8	83.8	80	73.1	0	2	270	0.00	29.825 
12:00	80.3	80.3	84.9	80	73.5	0	2	270	0.00	29.823 
12:05	80.3	80.3	84.6	78	72.8	0	1	270	0.00	29.823 
12:10	80.5	80.5	85.1	79	73.4	0	2	270	0.00	29.823 
12:15	80.5	80.5	85.3	80	73.7	1	3	292	0.00	29.824 
12:20	80.5	80.5	85.0	78	73.0	1	3	292	0.00	29.824 
12:25	80.3	80.3	84.6	78	72.8	0	2	292	0.00	29.824 
12:30	80.1	80.1	83.8	75	71.4	1	2	292	0.00	29.826 
12:35	80.5	80.5	84.8	77	72.6	0	1	292	0.00	29.826 
12:40	81.6	81.6	87.2	77	73.7	1	3	292	0.00	29.826 
12:45	82.0	82.0	87.3	74	72.9	1	2	292	0.00	29.824 
12:50	82.2	82.2	88.0	75	73.5	0	1	292	0.00	29.824 
12:55	83.0	83.0	89.5	74	73.8	1	3	292	0.00	29.824 
13:00	83.2	83.2	89.4	72	73.2	1	4	292	0.00	29.824 
13:05	83.4	83.4	89.2	70	72.6	1	2	292	0.00	29.824 
13:10	83.2	83.2	87.2	64	69.7	1	3	292	0.00	29.824 
13:15	83.2	83.2	87.5	65	70.2	0	1	292	0.00	29.823 
13:20	83.6	83.6	88.2	65	70.6	1	3	292	0.00	29.823 
13:25	84.3	84.3	90.5	68	72.6	1	2	292	0.00	29.823 
13:30	84.9	84.9	91.0	66	72.2	0	2	292	0.00	29.823 
13:35	85.1	85.1	90.1	62	70.6	1	3	292	0.00	29.823 
13:40	85.1	85.1	91.1	65	72.0	1	2	292	0.00	29.823 
13:45	85.3	85.3	90.1	61	70.3	1	4	292	0.00	29.817 
13:50	85.7	85.7	91.6	63	71.6	0	2	292	0.00	29.817 
13:55	85.9	85.9	90.9	60	70.4	1	3	292	0.00	29.817 
14:00	85.9	85.9	91.3	61	70.9	1	2	292	0.00	29.814 
14:05	85.7	85.7	88.9	55	67.6	1	4	270	0.00	29.814 
14:10	85.5	85.5	89.5	58	69.0	1	3	292	0.00	29.814 
14:15	85.1	85.1	89.1	59	69.1	1	2	292	0.00	29.809 
14:20	85.1	85.1	90.1	62	70.6	1	3	292	0.00	29.809 
14:25	85.1	85.1	87.9	55	67.1	2	4	292	0.00	29.809 
14:30	85.5	85.5	88.3	54	66.9	2	4	315	0.00	29.809 
14:35	85.9	85.9	88.6	53	66.7	2	4	292	0.00	29.809 
14:40	85.7	85.7	87.7	51	65.5	2	5	315	0.00	29.809 
14:45	85.5	85.5	87.2	50	64.7	3	5	270	0.00	29.808 
14:50	86.3	86.3	88.6	51	66.0	2	4	292	0.00	29.808 
14:55	86.5	86.5	88.6	50	65.6	2	5	315	0.00	29.808 
15:00	85.7	85.7	88.0	52	66.0	2	4	292	0.00	29.808 
15:05	85.7	85.7	88.6	54	67.1	1	3	315	0.00	29.808 
15:10	85.5	85.5	87.2	50	64.7	2	4	315	0.00	29.808 
15:15	85.9	85.9	87.2	48	63.9	1	4	315	0.00	29.803 
15:20	86.3	86.3	87.5	47	63.7	2	4	315	0.00	29.803 
15:25	86.5	86.5	87.5	46	63.2	2	4	315	0.00	29.803 
15:30	86.7	86.7	87.2	44	62.1	2	4	270	0.00	29.796 
15:35	87.2	87.2	88.5	46	63.9	1	3	270	0.00	29.796 
15:40	87.0	87.0	87.6	44	62.4	2	4	292	0.00	29.796 
15:45	86.7	86.7	87.5	45	62.8	2	4	292	0.00	29.807 
15:50	86.5	86.5	88.1	48	64.4	1	3	292	0.00	29.807 
15:55	86.1	86.1	88.0	50	65.3	1	3	292	0.00	29.807 
16:00	85.5	85.5	87.2	50	64.7	1	3	292	0.00	29.806 
16:05	85.3	85.3	87.1	51	65.1	1	2	292	0.00	29.806 
16:10	85.3	85.3	87.4	52	65.6	1	4	292	0.00	29.806 
16:15	85.3	85.3	88.0	54	66.7	1	3	292	0.00	29.806 
16:20	85.9	85.9	88.3	52	66.2	1	3	292	0.00	29.806 
16:25	86.1	86.1	88.3	51	65.8	1	4	315	0.00	29.806 
16:30	86.3	86.3	88.0	49	64.9	1	4	315	0.00	29.805 
16:35	86.5	86.5	88.6	50	65.6	1	3	315	0.00	29.805 
16:40	86.3	86.3	88.3	50	65.4	1	3	315	0.00	29.805 
16:45	86.1	86.1	87.8	49	64.7	2	4	315	0.00	29.798 
16:50	86.1	86.1	87.8	49	64.7	2	4	315	0.00	29.798 
16:55	86.5	86.5	88.9	51	66.2	1	3	315	0.00	29.798 
17:00	86.3	86.3	87.8	48	64.3	1	4	315	0.00	29.804 
17:05	86.1	86.1	87.2	47	63.5	1	3	315	0.00	29.804 
17:10	85.1	85.1	85.9	47	62.6	1	4	315	0.00	29.804 
17:15	84.9	84.9	85.8	48	63.0	1	3	315	0.00	29.812 
17:20	84.9	84.9	86.3	50	64.2	1	4	315	0.00	29.812 
17:25	85.5	85.5	86.4	47	62.9	1	4	315	0.00	29.812 
17:30	85.7	85.7	86.9	48	63.7	1	4	315	0.00	29.812 
17:35	85.7	85.7	86.7	47	63.1	0	2	315	0.00	29.812 
17:40	85.5	85.5	86.9	49	64.1	0	3	315	0.00	29.812 
17:45	85.5	85.5	86.4	47	62.9	1	3	338	0.00	29.814 
17:50	85.3	85.3	85.9	46	62.1	1	3	338	0.00	29.814 
17:55	85.1	85.1	85.9	47	62.6	1	4	338	0.00	29.814 
18:00	84.9	84.9	86.1	49	63.6	0	2	292	0.00	29.818 
18:05	84.7	84.7	85.6	48	62.8	0	2	292	0.00	29.818 
18:10	84.3	84.3	85.3	49	63.0	0	2	292	0.00	29.818 
18:15	84.3	84.3	85.5	50	63.6	0	2	292	0.00	29.814 
18:20	84.1	84.1	85.3	50	63.4	1	3	292	0.00	29.814 
18:25	84.1	84.1	85.0	49	62.8	0	2	292	0.00	29.814 
18:30	84.0	84.0	85.3	51	63.9	0	2	292	0.00	29.814 
18:35	83.8	83.8	85.5	53	64.8	0	1	292	0.00	29.814 
18:40	83.6	83.6	85.0	52	64.1	0	1	292	0.00	29.814 
18:45	83.4	83.4	85.0	53	64.4	0	1	292	0.00	29.816 
18:50	83.4	83.4	84.8	52	63.9	0	1	292	0.00	29.816 
18:55	83.4	83.4	85.2	54	65.0	0	0	---	0.00	29.816 
19:00	83.2	83.2	84.7	53	64.3	0	1	292	0.00	29.817 
19:05	83.2	83.2	84.9	54	64.8	0	0	---	0.00	29.817 
19:10	83.0	83.0	84.5	53	64.1	0	1	292	0.00	29.817 
19:15	82.8	82.8	84.2	53	63.9	0	1	292	0.00	29.816 
19:20	82.8	82.8	84.4	54	64.4	0	0	---	0.00	29.816 
19:25	82.8	82.8	84.4	54	64.4	0	0	---	0.00	29.816 
19:30	82.6	82.6	84.1	54	64.2	0	0	---	0.00	29.815 
19:35	82.4	82.4	84.1	55	64.6	0	0	---	0.00	29.815 
19:40	82.2	82.2	84.0	56	64.9	0	0	---	0.00	29.815 
19:45	81.8	81.8	83.5	56	64.5	0	1	292	0.00	29.827 
19:50	81.8	81.8	83.6	57	65.0	0	0	---	0.00	29.827 
19:55	81.6	81.6	83.5	58	65.4	0	1	292	0.00	29.827 
20:00	81.4	81.4	83.4	59	65.7	0	0	---	0.00	29.831 
20:05	81.2	81.2	83.2	59	65.5	0	0	---	0.00	29.831 
20:10	81.2	81.2	83.3	60	66.0	0	0	---	0.00	29.831 
20:15	81.1	81.1	83.2	60	65.9	0	0	---	0.00	29.832 
20:20	81.1	81.1	83.3	61	66.4	0	2	292	0.00	29.832 
20:25	80.9	80.9	82.9	60	65.7	0	2	292	0.00	29.832 
20:30	80.7	80.7	82.7	60	65.5	0	0	---	0.00	29.837 
20:35	80.7	80.7	82.8	61	66.0	0	0	---	0.00	29.837 
20:40	80.3	80.3	82.3	61	65.6	0	0	---	0.00	29.837 
20:45	80.1	80.1	82.0	61	65.4	0	0	---	0.00	29.848 
20:50	80.1	80.1	82.0	61	65.4	0	0	---	0.00	29.848 
20:55	79.9	79.9	81.8	61	65.2	0	0	---	0.00	29.848 
21:00	79.8	79.8	81.8	62	65.6	0	0	---	0.00	29.848 
21:05	79.6	79.6	81.5	62	65.4	0	0	---	0.00	29.848 
21:10	79.4	79.4	81.3	62	65.2	0	0	---	0.00	29.848 
21:15	79.2	79.2	81.1	63	65.5	0	0	---	0.00	29.852 
21:20	78.8	78.8	80.7	64	65.6	0	0	---	0.00	29.852 
21:25	78.6	78.6	80.6	65	65.8	0	0	---	0.00	29.852 
21:30	78.3	78.3	80.2	65	65.5	0	0	---	0.00	29.861 
21:35	78.1	78.1	80.0	67	66.2	0	0	---	0.00	29.861 
21:40	77.7	77.7	79.6	68	66.3	0	0	---	0.00	29.861 
21:45	77.6	77.6	79.5	69	66.6	0	0	---	0.00	29.865 
21:50	77.2	77.2	79.0	69	66.2	0	0	---	0.00	29.865 
21:55	77.0	77.0	78.8	70	66.4	0	0	---	0.00	29.865 
22:00	76.8	76.8	78.5	72	67.1	0	0	---	0.00	29.874 
22:05	76.5	76.5	78.1	73	67.2	0	0	---	0.00	29.874 
22:10	76.3	76.3	77.8	74	67.4	0	0	---	0.00	29.874 
22:15	76.0	76.0	77.4	74	67.1	0	0	---	0.00	29.880 
22:20	75.8	75.8	77.1	75	67.3	0	0	---	0.00	29.880 
22:25	75.4	75.4	76.6	75	66.9	0	0	---	0.00	29.880 
22:30	75.3	75.3	76.4	76	67.2	0	0	---	0.00	29.884 
22:35	75.1	75.1	76.1	77	67.4	0	0	---	0.00	29.884 
22:40	74.9	74.9	74.9	78	67.6	0	0	---	0.00	29.884 
22:45	74.7	74.7	74.7	78	67.4	0	0	---	0.00	29.889 
22:50	74.6	74.6	74.6	79	67.6	0	0	---	0.00	29.889 
22:55	74.4	74.4	74.4	79	67.4	0	0	---	0.00	29.889 
23:00	74.2	74.2	74.2	79	67.3	0	0	---	0.00	29.885 
23:05	74.0	74.0	74.0	80	67.4	0	0	---	0.00	29.885 
23:10	73.9	73.9	73.9	81	67.7	0	0	---	0.00	29.885 
23:15	73.7	73.7	73.7	81	67.5	0	0	---	0.00	29.881 
23:20	73.5	73.5	73.5	82	67.7	0	0	---	0.00	29.881 
23:25	73.3	73.3	73.3	82	67.5	0	1	0	0.00	29.881 
23:30	73.3	73.3	73.3	82	67.5	0	0	---	0.00	29.881 
23:35	73.2	73.2	73.2	82	67.4	0	0	---	0.00	29.881 
23:40	73.2	73.2	73.2	82	67.4	0	0	---	0.00	29.881 
23:45	73.0	73.0	73.0	81	66.8	0	0	---	0.00	29.884 
23:50	73.0	73.0	73.0	81	66.8	0	0	---	0.00	29.884 
23:55	73.0	73.0	73.0	81	66.8	0	0	---	0.00	29.884 

CoCoRaHS
IN-AL-39
A2 Web Hosting
Creative Commons License
GoDaddy
search engine by freefind advanced

loaded 2018-11-20 02:24:21 • last modified 2010-11-18 10:43:29
Privacy PolicyDisclaimer
• wx.awcolley.com is powered by PmWiki v.2002016 •
• all content (unless otherwise noted) © 2018 A W Colley